createdAt,value
2023-04-14T00:02:16.629Z,9.94
2023-04-14T00:06:18.106Z,9.44
2023-04-14T00:10:19.889Z,10.04
2023-04-14T00:14:21.270Z,10.13
2023-04-14T00:18:22.728Z,9.80
2023-04-14T00:22:24.195Z,10.12
2023-04-14T00:26:25.650Z,10.17
2023-04-14T00:30:27.277Z,10.17
2023-04-14T00:34:28.644Z,9.83
2023-04-14T00:38:30.162Z,9.98
2023-04-14T00:42:31.954Z,9.88
2023-04-14T00:46:33.441Z,9.84
2023-04-14T00:50:34.943Z,9.90
2023-04-14T00:54:37.720Z,9.91
2023-04-14T00:58:39.268Z,9.86
2023-04-14T01:02:40.840Z,10.05
2023-04-14T01:06:42.625Z,9.97
2023-04-14T01:11:02.320Z,9.82
2023-04-14T01:15:24.945Z,9.39
2023-04-14T01:19:45.426Z,9.99
2023-04-14T01:24:06.055Z,9.76
2023-04-14T01:28:25.209Z,9.89
2023-04-14T01:32:31.262Z,10.05
2023-04-14T01:36:42.259Z,9.89
2023-04-14T01:40:50.375Z,9.93
2023-04-14T01:44:56.523Z,10.11
2023-04-14T01:48:58.265Z,10.20
2023-04-14T01:53:01.295Z,10.19
2023-04-14T01:57:04.242Z,10.22
2023-04-14T02:01:06.578Z,10.18
2023-04-14T02:05:10.053Z,10.06
2023-04-14T02:09:13.102Z,9.80
2023-04-14T02:13:17.150Z,9.77
2023-04-14T02:17:21.528Z,9.79
2023-04-14T02:21:25.700Z,9.61
2023-04-14T02:25:32.162Z,9.40
2023-04-14T02:29:37.316Z,8.89
2023-04-14T02:33:39.856Z,9.05
2023-04-14T02:37:47.055Z,9.01
2023-04-14T02:41:56.927Z,9.44
2023-04-14T02:46:02.828Z,9.74
2023-04-14T02:50:07.331Z,9.69
2023-04-14T02:54:12.763Z,9.61
2023-04-14T02:58:21.362Z,9.50
2023-04-14T03:02:24.775Z,9.07
2023-04-14T03:06:39.203Z,9.44
2023-04-14T03:10:44.691Z,9.39
2023-04-14T03:14:48.328Z,9.41
2023-04-14T03:18:50.950Z,9.35
2023-04-14T03:23:05.284Z,9.33
2023-04-14T03:27:21.900Z,9.29
2023-04-14T03:31:31.780Z,9.34
2023-04-14T03:35:35.760Z,9.22
2023-04-14T03:39:39.162Z,9.26
2023-04-14T03:43:42.634Z,9.22
2023-04-14T03:47:48.166Z,9.27
2023-04-14T03:51:53.334Z,9.39
2023-04-14T03:55:57.896Z,9.49
2023-04-14T04:00:08.373Z,9.46
2023-04-14T04:04:17.373Z,9.50
2023-04-14T04:08:20.907Z,9.55
2023-04-14T04:12:24.091Z,9.50
2023-04-14T04:16:28.643Z,9.74
2023-04-14T04:20:32.336Z,9.86
2023-04-14T04:24:38.384Z,9.87
2023-04-14T04:28:44.229Z,9.87
2023-04-14T04:32:46.120Z,9.97
2023-04-14T04:36:48.133Z,10.06
2023-04-14T04:40:49.824Z,9.95
2023-04-14T04:44:57.343Z,9.75
2023-04-14T04:48:59.933Z,9.79
2023-04-14T04:53:01.732Z,9.98
2023-04-14T04:57:03.631Z,10.07
2023-04-14T05:01:09.584Z,9.89
2023-04-14T05:05:11.140Z,10.14
2023-04-14T05:09:12.574Z,10.39
2023-04-14T05:13:13.918Z,10.55
2023-04-14T05:17:15.305Z,10.90
2023-04-14T05:21:16.862Z,11.01
2023-04-14T05:25:18.369Z,11.22
2023-04-14T05:29:19.790Z,11.45
2023-04-14T05:33:21.245Z,11.46
2023-04-14T05:37:22.883Z,11.56
2023-04-14T05:41:24.276Z,11.58
2023-04-14T05:45:25.887Z,11.65
2023-04-14T05:49:27.302Z,11.65
2023-04-14T05:53:28.703Z,11.87
2023-04-14T05:57:30.269Z,12.13
2023-04-14T06:01:31.693Z,12.20
2023-04-14T06:05:34.222Z,12.17
2023-04-14T06:09:35.770Z,12.32
2023-04-14T06:13:37.249Z,12.65
2023-04-14T06:17:39.750Z,12.71
2023-04-14T06:21:41.203Z,12.56
2023-04-14T06:25:42.602Z,12.26
2023-04-14T06:29:43.995Z,12.47
2023-04-14T06:33:45.363Z,12.70
2023-04-14T06:37:46.741Z,12.26
2023-04-14T06:41:48.514Z,12.38
2023-04-14T06:45:51.083Z,12.95
2023-04-14T06:49:52.761Z,12.47
2023-04-14T06:53:54.104Z,12.84
2023-04-14T06:57:55.641Z,13.07
2023-04-14T07:01:58.640Z,12.91
2023-04-14T07:06:04.414Z,12.89
2023-04-14T07:10:06.714Z,13.74
2023-04-14T07:14:08.264Z,13.42
2023-04-14T07:18:09.695Z,13.69
2023-04-14T07:22:11.256Z,12.89
2023-04-14T07:26:12.642Z,12.69
2023-04-14T07:30:14.239Z,12.77
2023-04-14T07:34:15.615Z,12.81
2023-04-14T07:38:17.232Z,13.05
2023-04-14T07:42:18.610Z,13.26
2023-04-14T07:46:20.310Z,13.47
2023-04-14T07:50:21.813Z,14.24
2023-04-14T07:54:23.262Z,14.34
2023-04-14T07:58:26.687Z,14.03
2023-04-14T08:02:29.474Z,14.46
2023-04-14T08:06:31.187Z,14.32
2023-04-14T08:10:32.545Z,14.71
2023-04-14T08:14:34.161Z,14.85
2023-04-14T08:18:36.547Z,14.37
2023-04-14T08:22:38.114Z,14.60
2023-04-14T08:26:40.397Z,14.79
2023-04-14T08:30:41.851Z,15.06
2023-04-14T08:35:34.936Z,15.30
2023-04-14T08:39:05.482Z,15.16
2023-04-14T08:43:07.395Z,15.33
2023-04-14T08:47:10.323Z,15.25
2023-04-14T08:51:29.038Z,15.20
2023-04-14T08:55:32.375Z,15.23
2023-04-14T08:59:34.124Z,15.62
2023-04-14T09:03:37.672Z,15.53
2023-04-14T09:07:39.288Z,15.44
2023-04-14T09:11:41.372Z,15.51
2023-04-14T09:15:43.560Z,15.30
2023-04-14T09:20:38.579Z,15.21
2023-04-14T09:24:07.066Z,14.88
2023-04-14T09:28:08.737Z,14.70
2023-04-14T09:32:12.340Z,14.24
2023-04-14T09:36:24.307Z,14.72
2023-04-14T09:40:30.989Z,13.70
2023-04-14T09:44:32.380Z,14.16
2023-04-14T09:48:35.245Z,13.93
2023-04-14T09:52:41.768Z,13.84
2023-04-14T09:56:45.835Z,13.96
2023-04-14T10:00:47.691Z,14.61
2023-04-14T10:05:03.655Z,14.22
2023-04-14T10:09:05.832Z,14.23
2023-04-14T10:13:07.427Z,14.40
2023-04-14T10:17:09.846Z,14.61
2023-04-14T10:21:11.574Z,14.58
2023-04-14T10:25:13.248Z,14.76
2023-04-14T10:29:15.350Z,14.71
2023-04-14T10:33:16.943Z,14.37
2023-04-14T10:37:18.445Z,14.77
2023-04-14T10:41:19.851Z,14.38
2023-04-14T10:45:21.708Z,14.43
2023-04-14T10:49:34.429Z,14.72
2023-04-14T10:53:47.423Z,14.38
2023-04-14T10:57:49.148Z,14.50
2023-04-14T11:01:54.333Z,14.28
2023-04-14T11:05:55.771Z,14.25
2023-04-14T11:10:35.511Z,14.36
2023-04-14T11:14:37.161Z,14.18
2023-04-14T11:18:44.937Z,14.98
2023-04-14T11:22:49.740Z,14.68
2023-04-14T11:26:55.191Z,14.53
2023-04-14T11:30:58.302Z,14.42
2023-04-14T11:35:09.241Z,14.29
2023-04-14T11:39:10.844Z,13.71
2023-04-14T11:43:12.475Z,13.55
2023-04-14T11:47:21.452Z,13.86
2023-04-14T11:51:32.253Z,13.93
2023-04-14T11:55:34.686Z,14.25
2023-04-14T11:59:46.672Z,13.62
2023-04-14T12:03:49.608Z,14.18
2023-04-14T12:07:58.728Z,13.74
2023-04-14T12:12:07.618Z,13.53
2023-04-14T12:16:10.049Z,13.55
2023-04-14T12:20:15.872Z,13.53
2023-04-14T12:24:17.361Z,13.63
2023-04-14T12:28:19.531Z,13.32
2023-04-14T12:32:22.484Z,13.08
2023-04-14T12:36:27.440Z,13.52
2023-04-14T12:40:39.297Z,13.04
2023-04-14T12:44:41.588Z,13.04
2023-04-14T12:48:45.817Z,12.35
2023-04-14T12:52:47.575Z,12.73
2023-04-14T12:56:48.950Z,12.08
2023-04-14T13:00:50.875Z,12.48
2023-04-14T13:04:52.361Z,12.21
2023-04-14T13:08:55.941Z,12.89
2023-04-14T13:12:57.641Z,12.60
2023-04-14T13:16:59.051Z,12.46
2023-04-14T13:21:02.131Z,12.04
2023-04-14T13:25:04.177Z,12.03
2023-04-14T13:29:05.677Z,11.70
2023-04-14T13:33:07.766Z,11.55
2023-04-14T13:37:09.249Z,11.32
2023-04-14T13:41:11.059Z,11.24
2023-04-14T13:45:12.454Z,11.20
2023-04-14T13:49:13.858Z,11.00
2023-04-14T13:53:15.256Z,11.41
2023-04-14T13:57:16.661Z,11.30
2023-04-14T14:01:18.229Z,10.89
2023-04-14T14:05:19.637Z,11.30
2023-04-14T14:09:21.066Z,11.22
2023-04-14T14:13:22.569Z,11.05
2023-04-14T14:17:24.209Z,11.18
2023-04-14T14:21:26.718Z,11.36
2023-04-14T14:25:29.378Z,11.19
2023-04-14T14:29:31.698Z,11.32
2023-04-14T14:33:33.077Z,11.48
2023-04-14T14:37:34.610Z,11.24
2023-04-14T14:41:36.094Z,11.33
2023-04-14T14:45:37.733Z,11.10
2023-04-14T14:49:43.345Z,11.41
2023-04-14T14:53:50.518Z,11.31
2023-04-14T14:57:56.422Z,11.42
2023-04-14T15:01:58.183Z,11.19
2023-04-14T15:05:59.572Z,10.82
2023-04-14T15:10:03.450Z,11.00
2023-04-14T15:14:04.903Z,10.86
2023-04-14T15:18:07.262Z,11.14
2023-04-14T15:22:08.665Z,11.17
2023-04-14T15:26:12.044Z,11.06
2023-04-14T15:30:23.641Z,11.34
2023-04-14T15:34:25.280Z,11.27
2023-04-14T15:38:27.034Z,11.24
2023-04-14T15:42:28.554Z,11.45
2023-04-14T15:46:30.339Z,11.55
2023-04-14T15:50:31.883Z,11.69
2023-04-14T15:54:34.440Z,11.59
2023-04-14T15:58:36.850Z,11.70
2023-04-14T16:02:42.962Z,11.48
2023-04-14T16:06:50.371Z,11.43
2023-04-14T16:10:57.644Z,11.56
2023-04-14T16:15:05.470Z,11.40
2023-04-14T16:19:06.914Z,11.34
2023-04-14T16:23:09.027Z,11.34
2023-04-14T16:27:11.199Z,11.54
2023-04-14T16:31:13.304Z,11.13
2023-04-14T16:35:17.205Z,11.63
2023-04-14T16:39:21.134Z,11.29
2023-04-14T16:43:24.586Z,11.12
2023-04-14T16:47:26.109Z,11.09
2023-04-14T16:51:27.918Z,11.11
2023-04-14T16:55:29.274Z,11.13
2023-04-14T16:59:30.987Z,11.39
2023-04-14T17:03:32.475Z,11.79
2023-04-14T17:07:34.149Z,12.00
2023-04-14T17:11:35.701Z,11.93
2023-04-14T17:15:37.481Z,11.84
2023-04-14T17:19:38.988Z,11.93
2023-04-14T17:23:40.719Z,12.00
2023-04-14T17:27:42.133Z,11.63
2023-04-14T17:31:44.601Z,12.00
2023-04-14T17:35:46.493Z,11.89
2023-04-14T17:39:49.177Z,12.06
2023-04-14T17:43:50.578Z,12.35
2023-04-14T17:47:53.686Z,12.40
2023-04-14T17:51:55.961Z,12.64
2023-04-14T17:55:57.644Z,12.74
2023-04-14T17:59:59.179Z,12.68
2023-04-14T18:04:01.283Z,12.63
2023-04-14T18:08:03.350Z,12.42
2023-04-14T18:12:04.926Z,12.43
2023-04-14T18:16:07.190Z,12.43
2023-04-14T18:20:13.707Z,12.46
2023-04-14T18:28:19.404Z,12.34
2023-04-14T18:32:22.197Z,12.73
2023-04-14T18:36:24.053Z,12.72
2023-04-14T18:40:27.499Z,12.58
2023-04-14T18:44:29.191Z,13.03
2023-04-14T18:48:30.648Z,12.23
2023-04-14T18:52:32.002Z,12.15
2023-04-14T18:56:33.363Z,11.98
2023-04-14T19:00:34.744Z,12.00
2023-04-14T19:04:36.319Z,11.87
2023-04-14T19:08:37.814Z,12.43
2023-04-14T19:12:40.486Z,12.78
2023-04-14T19:16:42.071Z,12.86
2023-04-14T19:20:43.488Z,12.92
2023-04-14T19:24:44.856Z,13.20
2023-04-14T19:28:46.490Z,13.31
2023-04-14T19:32:47.999Z,13.33
2023-04-14T19:36:49.450Z,13.35
2023-04-14T19:40:50.837Z,13.37
2023-04-14T19:44:52.265Z,13.22
2023-04-14T19:48:54.455Z,13.20
2023-04-14T19:52:55.878Z,13.27
2023-04-14T19:56:57.228Z,13.30
2023-04-14T20:00:58.956Z,13.26
2023-04-14T20:05:01.008Z,13.08
2023-04-14T20:09:04.027Z,12.94
2023-04-14T20:13:05.757Z,12.86
2023-04-14T20:17:07.318Z,12.94
2023-04-14T20:21:09.192Z,12.45
2023-04-14T20:25:11.432Z,12.33
2023-04-14T20:29:12.928Z,12.97
2023-04-14T20:33:14.639Z,12.98
2023-04-14T20:37:16.505Z,13.17
2023-04-14T20:41:18.047Z,12.70
2023-04-14T20:45:19.989Z,12.90
2023-04-14T20:49:21.574Z,12.93
2023-04-14T20:53:26.481Z,12.85
2023-04-14T20:57:28.209Z,12.68
2023-04-14T21:01:30.448Z,13.02
2023-04-14T21:05:31.934Z,13.25
2023-04-14T21:09:33.301Z,13.10
2023-04-14T21:15:26.431Z,13.02
2023-04-14T21:17:56.237Z,12.91
2023-04-14T21:21:57.679Z,13.02
2023-04-14T21:25:59.800Z,13.15
2023-04-14T21:30:01.379Z,12.63
2023-04-14T21:34:04.391Z,13.06
2023-04-14T21:38:05.787Z,13.14
2023-04-14T21:42:07.827Z,12.86
2023-04-14T21:46:09.964Z,13.13
2023-04-14T21:50:11.492Z,12.64
2023-04-14T21:54:13.616Z,12.82
2023-04-14T21:58:16.077Z,12.62
2023-04-14T22:02:17.559Z,12.59
2023-04-14T22:06:19.126Z,12.70
2023-04-14T22:10:24.264Z,12.86
2023-04-14T22:14:25.712Z,12.63
2023-04-14T22:18:31.030Z,12.63
2023-04-14T22:22:32.919Z,12.45
2023-04-14T22:26:34.355Z,12.31
2023-04-14T22:30:35.965Z,12.22
2023-04-14T22:34:37.384Z,12.23
2023-04-14T22:38:38.846Z,11.26
2023-04-14T22:42:40.509Z,11.98
2023-04-14T22:46:42.107Z,11.69
2023-04-14T22:50:43.603Z,11.26
2023-04-14T22:54:44.983Z,11.30
2023-04-14T22:58:46.410Z,11.52
2023-04-14T23:02:48.680Z,11.50
2023-04-14T23:06:50.136Z,11.42
2023-04-14T23:10:53.648Z,12.32
2023-04-14T23:14:55.201Z,12.28
2023-04-14T23:18:56.691Z,12.05
2023-04-14T23:22:58.051Z,12.20
2023-04-14T23:27:00.307Z,12.23
2023-04-14T23:31:02.283Z,12.08
2023-04-14T23:35:04.433Z,12.27
2023-04-14T23:39:05.923Z,11.78
2023-04-14T23:43:07.300Z,12.32
2023-04-14T23:47:08.744Z,11.51
2023-04-14T23:51:16.273Z,11.79
2023-04-14T23:55:18.868Z,11.86
2023-04-14T23:59:20.227Z,11.92
